sensor_id;sensor_type;location;lat;lon;timestamp;pressure;altitude;pressure_sealevel;temperature;humidity
5814;BME280;2933;52.302;8.134;2023-02-15T00:02:18;101872.53;;;-0.47;100.00
5814;BME280;2933;52.302;8.134;2023-02-15T00:07:20;101874.28;;;-0.41;100.00
5814;BME280;2933;52.302;8.134;2023-02-15T00:12:22;101861.44;;;-0.41;100.00
5814;BME280;2933;52.302;8.134;2023-02-15T00:17:26;101865.69;;;-0.45;100.00
5814;BME280;2933;52.302;8.134;2023-02-15T00:22:28;101857.09;;;-0.53;100.00
5814;BME280;2933;52.302;8.134;2023-02-15T00:27:29;101855.44;;;-0.43;100.00
5814;BME280;2933;52.302;8.134;2023-02-15T00:32:32;101853.81;;;-0.30;100.00
5814;BME280;2933;52.302;8.134;2023-02-15T00:37:34;101848.59;;;-0.46;100.00
5814;BME280;2933;52.302;8.134;2023-02-15T00:42:36;101843.31;;;-0.64;100.00
5814;BME280;2933;52.302;8.134;2023-02-15T00:47:39;101858.06;;;-0.37;100.00
5814;BME280;2933;52.302;8.134;2023-02-15T00:52:40;101853.72;;;-0.43;100.00
5814;BME280;2933;52.302;8.134;2023-02-15T00:57:42;101848.63;;;-0.37;100.00
5814;BME280;2933;52.302;8.134;2023-02-15T01:02:45;101828.09;;;-0.40;100.00
5814;BME280;2933;52.302;8.134;2023-02-15T01:07:47;101832.38;;;-0.34;100.00
5814;BME280;2933;52.302;8.134;2023-02-15T01:12:49;101795.31;;;-0.76;100.00
5814;BME280;2933;52.302;8.134;2023-02-15T01:17:52;101822.91;;;-0.46;100.00
5814;BME280;2933;52.302;8.134;2023-02-15T01:22:54;101813.50;;;-0.47;100.00
5814;BME280;2933;52.302;8.134;2023-02-15T01:27:59;101815.19;;;-0.51;100.00
5814;BME280;2933;52.302;8.134;2023-02-15T01:33:02;101767.00;;;-0.87;100.00
5814;BME280;2933;52.302;8.134;2023-02-15T01:38:04;101799.66;;;-0.66;100.00
5814;BME280;2933;52.302;8.134;2023-02-15T01:43:09;101811.63;;;-0.67;100.00
5814;BME280;2933;52.302;8.134;2023-02-15T01:48:18;101801.41;;;-0.62;100.00
5814;BME280;2933;52.302;8.134;2023-02-15T01:53:25;101808.97;;;-0.79;100.00
5814;BME280;2933;52.302;8.134;2023-02-15T01:58:29;101805.56;;;-0.78;100.00
5814;BME280;2933;52.302;8.134;2023-02-15T02:03:38;101802.97;;;-0.84;100.00
5814;BME280;2933;52.302;8.134;2023-02-15T02:08:41;101786.69;;;-0.86;100.00
5814;BME280;2933;52.302;8.134;2023-02-15T02:13:44;101786.81;;;-0.68;100.00
5814;BME280;2933;52.302;8.134;2023-02-15T02:18:59;101773.03;;;-0.84;100.00
5814;BME280;2933;52.302;8.134;2023-02-15T02:24:25;101743.88;;;-0.96;100.00
5814;BME280;2933;52.302;8.134;2023-02-15T02:35:19;101754.19;;;-0.87;100.00
5814;BME280;2933;52.302;8.134;2023-02-15T02:40:30;101749.97;;;-0.82;100.00
5814;BME280;2933;52.302;8.134;2023-02-15T02:45:40;101741.50;;;-0.64;100.00
5814;BME280;2933;52.302;8.134;2023-02-15T02:50:46;101739.00;;;-0.49;100.00
5814;BME280;2933;52.302;8.134;2023-02-15T02:55:51;101713.03;;;-1.00;100.00
5814;BME280;2933;52.302;8.134;2023-02-15T03:00:56;101753.38;;;-0.80;100.00
5814;BME280;2933;52.302;8.134;2023-02-15T03:06:05;101704.41;;;-1.16;100.00
5814;BME280;2933;52.302;8.134;2023-02-15T03:11:10;101744.72;;;-0.96;100.00
5814;BME280;2933;52.302;8.134;2023-02-15T03:16:13;101747.41;;;-0.79;100.00
5814;BME280;2933;52.302;8.134;2023-02-15T03:21:34;101748.25;;;-0.80;100.00
5814;BME280;2933;52.302;8.134;2023-02-15T03:26:38;101729.28;;;-1.02;100.00
5814;BME280;2933;52.302;8.134;2023-02-15T03:31:43;101734.44;;;-0.99;100.00
5814;BME280;2933;52.302;8.134;2023-02-15T03:36:52;101718.97;;;-1.10;100.00
5814;BME280;2933;52.302;8.134;2023-02-15T03:42:01;101709.50;;;-1.17;100.00
5814;BME280;2933;52.302;8.134;2023-02-15T03:47:10;101698.50;;;-1.02;100.00
5814;BME280;2933;52.302;8.134;2023-02-15T03:52:16;101713.09;;;-0.93;100.00
5814;BME280;2933;52.302;8.134;2023-02-15T03:57:20;101706.91;;;-1.23;100.00
5814;BME280;2933;52.302;8.134;2023-02-15T04:02:46;101713.75;;;-1.22;100.00
5814;BME280;2933;52.302;8.134;2023-02-15T04:07:54;101713.78;;;-1.18;100.00
5814;BME280;2933;52.302;8.134;2023-02-15T04:12:56;101688.06;;;-1.27;100.00
5814;BME280;2933;52.302;8.134;2023-02-15T04:17:58;101688.22;;;-1.05;100.00
5814;BME280;2933;52.302;8.134;2023-02-15T04:23:00;101696.63;;;-1.28;100.00
5814;BME280;2933;52.302;8.134;2023-02-15T04:28:20;101715.53;;;-1.12;100.00
5814;BME280;2933;52.302;8.134;2023-02-15T04:33:21;101709.56;;;-1.12;100.00
5814;BME280;2933;52.302;8.134;2023-02-15T04:38:24;101703.50;;;-1.24;100.00
5814;BME280;2933;52.302;8.134;2023-02-15T04:43:26;101653.81;;;-1.38;100.00
5814;BME280;2933;52.302;8.134;2023-02-15T04:48:27;101708.56;;;-1.28;100.00
5814;BME280;2933;52.302;8.134;2023-02-15T04:53:30;101663.97;;;-1.52;100.00
5814;BME280;2933;52.302;8.134;2023-02-15T04:58:32;101692.28;;;-1.37;100.00
5814;BME280;2933;52.302;8.134;2023-02-15T05:03:35;101697.47;;;-1.29;100.00
5814;BME280;2933;52.302;8.134;2023-02-15T05:08:38;101687.97;;;-1.42;100.00
5814;BME280;2933;52.302;8.134;2023-02-15T05:13:40;101689.75;;;-1.34;100.00
5814;BME280;2933;52.302;8.134;2023-02-15T05:18:41;101676.81;;;-1.48;100.00
5814;BME280;2933;52.302;8.134;2023-02-15T05:23:44;101689.69;;;-1.41;100.00
5814;BME280;2933;52.302;8.134;2023-02-15T05:28:46;101683.69;;;-1.42;100.00
5814;BME280;2933;52.302;8.134;2023-02-15T05:33:47;101660.44;;;-1.62;100.00
5814;BME280;2933;52.302;8.134;2023-02-15T05:38:50;101664.69;;;-1.67;100.00
5814;BME280;2933;52.302;8.134;2023-02-15T05:43:54;101676.06;;;-1.33;100.00
5814;BME280;2933;52.302;8.134;2023-02-15T05:48:56;101669.97;;;-1.46;100.00
5814;BME280;2933;52.302;8.134;2023-02-15T05:53:59;101658.78;;;-1.60;100.00
5814;BME280;2933;52.302;8.134;2023-02-15T05:59:00;101651.97;;;-1.52;100.00
5814;BME280;2933;52.302;8.134;2023-02-15T06:04:03;101664.13;;;-1.29;100.00
5814;BME280;2933;52.302;8.134;2023-02-15T06:09:06;101660.59;;;-1.45;100.00
5814;BME280;2933;52.302;8.134;2023-02-15T06:14:07;101645.13;;;-1.56;100.00
5814;BME280;2933;52.302;8.134;2023-02-15T06:19:09;101651.22;;;-1.40;100.00
5814;BME280;2933;52.302;8.134;2023-02-15T06:24:12;101662.41;;;-1.32;100.00
5814;BME280;2933;52.302;8.134;2023-02-15T06:29:13;101666.72;;;-1.27;100.00
5814;BME280;2933;52.302;8.134;2023-02-15T06:34:15;101654.00;;;-1.10;100.00
5814;BME280;2933;52.302;8.134;2023-02-15T06:39:18;101654.06;;;-1.03;100.00
5814;BME280;2933;52.302;8.134;2023-02-15T06:44:20;101658.31;;;-1.05;100.00
5814;BME280;2933;52.302;8.134;2023-02-15T06:49:21;101661.75;;;-1.04;100.00
5814;BME280;2933;52.302;8.134;2023-02-15T06:54:25;101664.28;;;-1.10;100.00
5814;BME280;2933;52.302;8.134;2023-02-15T06:59:26;101662.38;;;-1.33;100.00
5814;BME280;2933;52.302;8.134;2023-02-15T07:04:27;101663.38;;;-1.12;100.00
5814;BME280;2933;52.302;8.134;2023-02-15T07:09:31;101662.63;;;-0.98;100.00
5814;BME280;2933;52.302;8.134;2023-02-15T07:14:33;101662.56;;;-1.08;100.00
5814;BME280;2933;52.302;8.134;2023-02-15T07:19:36;101663.44;;;-1.05;100.00
5814;BME280;2933;52.302;8.134;2023-02-15T07:24:39;101657.50;;;-0.96;100.00
5814;BME280;2933;52.302;8.134;2023-02-15T07:29:40;101630.13;;;-1.02;100.00
5814;BME280;2933;52.302;8.134;2023-02-15T07:34:42;101636.13;;;-0.93;100.00
5814;BME280;2933;52.302;8.134;2023-02-15T07:39:45;101639.59;;;-0.87;100.00
5814;BME280;2933;52.302;8.134;2023-02-15T07:44:46;101636.25;;;-0.70;100.00
5814;BME280;2933;52.302;8.134;2023-02-15T07:49:48;101638.84;;;-0.64;100.00
5814;BME280;2933;52.302;8.134;2023-02-15T07:54:52;101626.88;;;-0.57;100.00
5814;BME280;2933;52.302;8.134;2023-02-15T07:59:53;101620.94;;;-0.55;100.00
5814;BME280;2933;52.302;8.134;2023-02-15T08:04:55;101624.38;;;-0.42;100.00
5814;BME280;2933;52.302;8.134;2023-02-15T08:09:58;101622.72;;;-0.09;100.00
5814;BME280;2933;52.302;8.134;2023-02-15T08:15:00;101625.34;;;0.07;100.00
5814;BME280;2933;52.302;8.134;2023-02-15T08:20:02;101609.91;;;0.04;100.00
5814;BME280;2933;52.302;8.134;2023-02-15T08:25:05;101597.91;;;-0.14;100.00
5814;BME280;2933;52.302;8.134;2023-02-15T08:30:10;101601.31;;;-0.14;100.00
5814;BME280;2933;52.302;8.134;2023-02-15T08:35:12;101602.19;;;-0.10;100.00
5814;BME280;2933;52.302;8.134;2023-02-15T08:40:18;101609.03;;;-0.02;100.00
5814;BME280;2933;52.302;8.134;2023-02-15T08:45:20;101544.75;;;-0.51;100.00
5814;BME280;2933;52.302;8.134;2023-02-15T08:50:22;101600.47;;;-0.07;100.00
5814;BME280;2933;52.302;8.134;2023-02-15T08:55:25;101601.34;;;-0.09;100.00
5814;BME280;2933;52.302;8.134;2023-02-15T09:00:34;101589.34;;;0.04;100.00
5814;BME280;2933;52.302;8.134;2023-02-15T09:05:39;101549.97;;;-0.03;100.00
5814;BME280;2933;52.302;8.134;2023-02-15T09:10:45;101561.94;;;0.26;100.00
5814;BME280;2933;52.302;8.134;2023-02-15T09:15:46;101526.81;;;0.36;100.00
5814;BME280;2933;52.302;8.134;2023-02-15T09:20:51;101567.81;;;0.82;100.00
5814;BME280;2933;52.302;8.134;2023-02-15T09:25:54;101550.69;;;0.83;100.00
5814;BME280;2933;52.302;8.134;2023-02-15T09:30:56;101530.09;;;0.84;100.00
5814;BME280;2933;52.302;8.134;2023-02-15T09:35:57;101567.75;;;1.07;100.00
5814;BME280;2933;52.302;8.134;2023-02-15T09:41:14;101555.59;;;1.38;100.00
5814;BME280;2933;52.302;8.134;2023-02-15T09:46:32;101562.47;;;1.39;100.00
5814;BME280;2933;52.302;8.134;2023-02-15T09:51:52;101553.78;;;1.56;100.00
5814;BME280;2933;52.302;8.134;2023-02-15T09:57:05;101552.72;;;1.83;100.00
5814;BME280;2933;52.302;8.134;2023-02-15T10:02:21;101550.03;;;1.99;100.00
5814;BME280;2933;52.302;8.134;2023-02-15T10:07:39;101568.69;;;2.30;100.00
5814;BME280;2933;52.302;8.134;2023-02-15T10:12:55;101572.00;;;2.40;100.00
5814;BME280;2933;52.302;8.134;2023-02-15T10:18:10;101571.75;;;2.68;100.00
5814;BME280;2933;52.302;8.134;2023-02-15T10:23:40;101562.13;;;2.81;100.00
5814;BME280;2933;52.302;8.134;2023-02-15T10:28:48;101491.94;;;2.54;100.00
5814;BME280;2933;52.302;8.134;2023-02-15T10:34:09;101538.59;;;3.07;100.00
5814;BME280;2933;52.302;8.134;2023-02-15T10:39:21;101548.63;;;3.30;100.00
5814;BME280;2933;52.302;8.134;2023-02-15T10:44:55;101538.94;;;3.46;100.00
5814;BME280;2933;52.302;8.134;2023-02-15T10:55:44;101567.22;;;4.12;100.00
5814;BME280;2933;52.302;8.134;2023-02-15T11:01:04;101544.63;;;4.23;100.00
5814;BME280;2933;52.302;8.134;2023-02-15T11:11:58;101552.53;;;4.64;100.00
5814;BME280;2933;52.302;8.134;2023-02-15T11:17:14;101491.44;;;4.53;100.00
5814;BME280;2933;52.302;8.134;2023-02-15T11:22:18;101554.91;;;5.17;100.00
5814;BME280;2933;52.302;8.134;2023-02-15T11:27:22;101531.16;;;5.37;100.00
5814;BME280;2933;52.302;8.134;2023-02-15T11:32:32;101498.72;;;5.58;100.00
5814;BME280;2933;52.302;8.134;2023-02-15T11:37:40;101469.03;;;5.70;100.00
5814;BME280;2933;52.302;8.134;2023-02-15T11:42:43;101519.69;;;6.20;100.00
5814;BME280;2933;52.302;8.134;2023-02-15T11:47:47;101518.94;;;6.49;100.00
5814;BME280;2933;52.302;8.134;2023-02-15T11:52:49;101514.63;;;6.48;100.00
5814;BME280;2933;52.302;8.134;2023-02-15T11:57:54;101498.72;;;6.60;100.00
5814;BME280;2933;52.302;8.134;2023-02-15T12:03:03;101503.34;;;6.81;100.00
5814;BME280;2933;52.302;8.134;2023-02-15T12:08:15;101504.34;;;7.05;100.00
5814;BME280;2933;52.302;8.134;2023-02-15T12:13:19;101496.69;;;7.30;100.00
5814;BME280;2933;52.302;8.134;2023-02-15T12:18:33;101486.75;;;7.43;100.00
5814;BME280;2933;52.302;8.134;2023-02-15T12:23:42;101484.44;;;7.60;98.24
5814;BME280;2933;52.302;8.134;2023-02-15T12:28:59;101472.78;;;7.46;100.00
5814;BME280;2933;52.302;8.134;2023-02-15T12:34:11;101466.22;;;7.62;99.83
5814;BME280;2933;52.302;8.134;2023-02-15T12:39:19;101432.63;;;7.56;99.43
5814;BME280;2933;52.302;8.134;2023-02-15T12:44:23;101434.28;;;7.84;97.37
5814;BME280;2933;52.302;8.134;2023-02-15T12:49:29;101455.81;;;8.13;96.51
5814;BME280;2933;52.302;8.134;2023-02-15T12:54:37;101417.69;;;7.86;98.44
5814;BME280;2933;52.302;8.134;2023-02-15T13:00:00;101425.84;;;8.02;100.00
5814;BME280;2933;52.302;8.134;2023-02-15T13:05:16;101420.88;;;8.20;100.00
5814;BME280;2933;52.302;8.134;2023-02-15T13:10:25;101432.56;;;8.57;98.72
5814;BME280;2933;52.302;8.134;2023-02-15T13:15:34;101435.97;;;8.83;94.07
5814;BME280;2933;52.302;8.134;2023-02-15T13:20:38;101404.25;;;8.71;91.02
5814;BME280;2933;52.302;8.134;2023-02-15T13:25:45;101407.34;;;8.81;89.01
5814;BME280;2933;52.302;8.134;2023-02-15T13:30:50;101402.50;;;8.94;87.59
5814;BME280;2933;52.302;8.134;2023-02-15T13:36:02;101387.47;;;9.01;87.39
5814;BME280;2933;52.302;8.134;2023-02-15T13:41:12;101402.91;;;9.28;85.62
5814;BME280;2933;52.302;8.134;2023-02-15T13:46:26;101403.88;;;9.47;85.11
5814;BME280;2933;52.302;8.134;2023-02-15T13:51:41;101388.66;;;9.57;84.05
5814;BME280;2933;52.302;8.134;2023-02-15T13:56:51;101394.91;;;9.53;85.76
5814;BME280;2933;52.302;8.134;2023-02-15T14:01:58;101379.81;;;9.61;85.13
5814;BME280;2933;52.302;8.134;2023-02-15T14:07:25;101374.97;;;9.73;85.56
5814;BME280;2933;52.302;8.134;2023-02-15T14:12:46;101381.09;;;9.72;84.30
5814;BME280;2933;52.302;8.134;2023-02-15T14:17:59;101369.47;;;9.79;83.41
5814;BME280;2933;52.302;8.134;2023-02-15T14:23:12;101357.19;;;9.81;83.30
5814;BME280;2933;52.302;8.134;2023-02-15T14:28:17;101369.06;;;9.88;83.79
5814;BME280;2933;52.302;8.134;2023-02-15T14:33:31;101371.38;;;9.96;83.74
5814;BME280;2933;52.302;8.134;2023-02-15T14:38:51;101363.31;;;10.00;83.16
5814;BME280;2933;52.302;8.134;2023-02-15T14:44:01;101348.78;;;9.95;82.22
5814;BME280;2933;52.302;8.134;2023-02-15T14:49:19;101339.81;;;10.00;80.03
5814;BME280;2933;52.302;8.134;2023-02-15T14:54:57;101348.09;;;10.10;78.14
5814;BME280;2933;52.302;8.134;2023-02-15T15:00:00;101345.47;;;10.10;77.94
5814;BME280;2933;52.302;8.134;2023-02-15T15:05:09;101336.13;;;9.85;79.70
5814;BME280;2933;52.302;8.134;2023-02-15T15:10:38;101334.06;;;9.73;80.14
5814;BME280;2933;52.302;8.134;2023-02-15T15:15:45;101330.84;;;9.47;80.20
5814;BME280;2933;52.302;8.134;2023-02-15T15:20:48;101329.44;;;9.38;81.12
5814;BME280;2933;52.302;8.134;2023-02-15T15:25:53;101333.97;;;9.35;79.85
5814;BME280;2933;52.302;8.134;2023-02-15T15:30:58;101340.59;;;9.21;79.93
5814;BME280;2933;52.302;8.134;2023-02-15T15:36:20;101330.19;;;8.99;80.96
5814;BME280;2933;52.302;8.134;2023-02-15T15:41:35;101317.13;;;8.79;83.11
5814;BME280;2933;52.302;8.134;2023-02-15T15:46:53;101337.31;;;8.73;85.91
5814;BME280;2933;52.302;8.134;2023-02-15T15:52:00;101335.59;;;8.50;88.08
5814;BME280;2933;52.302;8.134;2023-02-15T15:57:05;101335.13;;;8.39;90.18
5814;BME280;2933;52.302;8.134;2023-02-15T16:02:11;101318.53;;;8.19;92.52
5814;BME280;2933;52.302;8.134;2023-02-15T16:07:25;101324.78;;;7.90;95.09
5814;BME280;2933;52.302;8.134;2023-02-15T16:12:30;101318.91;;;7.59;97.13
5814;BME280;2933;52.302;8.134;2023-02-15T16:17:34;101323.09;;;7.38;98.73
5814;BME280;2933;52.302;8.134;2023-02-15T16:22:35;101318.38;;;7.24;100.00
5814;BME280;2933;52.302;8.134;2023-02-15T16:27:39;101302.78;;;6.99;100.00
5814;BME280;2933;52.302;8.134;2023-02-15T16:32:42;101301.22;;;6.67;100.00
5814;BME280;2933;52.302;8.134;2023-02-15T16:37:44;101300.13;;;6.45;100.00
5814;BME280;2933;52.302;8.134;2023-02-15T16:42:47;101303.34;;;6.25;100.00
5814;BME280;2933;52.302;8.134;2023-02-15T16:47:50;101307.19;;;6.12;100.00
5814;BME280;2933;52.302;8.134;2023-02-15T16:52:53;101309.31;;;5.96;100.00
5814;BME280;2933;52.302;8.134;2023-02-15T16:57:59;101292.91;;;5.64;100.00
5814;BME280;2933;52.302;8.134;2023-02-15T17:03:05;101313.69;;;5.62;100.00
5814;BME280;2933;52.302;8.134;2023-02-15T17:08:14;101291.91;;;5.37;100.00
5814;BME280;2933;52.302;8.134;2023-02-15T17:13:18;101311.81;;;5.36;100.00
5814;BME280;2933;52.302;8.134;2023-02-15T17:18:22;101319.78;;;5.27;100.00
5814;BME280;2933;52.302;8.134;2023-02-15T17:23:30;101299.88;;;5.29;100.00
5814;BME280;2933;52.302;8.134;2023-02-15T17:28:45;101281.50;;;5.05;100.00
5814;BME280;2933;52.302;8.134;2023-02-15T17:34:41;101314.91;;;5.14;100.00
5814;BME280;2933;52.302;8.134;2023-02-15T17:39:43;101294.81;;;4.90;100.00
5814;BME280;2933;52.302;8.134;2023-02-15T17:44:46;101298.41;;;4.84;100.00
5814;BME280;2933;52.302;8.134;2023-02-15T17:49:48;101297.22;;;4.97;100.00
5814;BME280;2933;52.302;8.134;2023-02-15T17:54:50;101302.56;;;4.91;100.00
5814;BME280;2933;52.302;8.134;2023-02-15T18:00:13;101308.97;;;4.75;100.00
5814;BME280;2933;52.302;8.134;2023-02-15T18:05:32;101298.94;;;4.61;100.00
5814;BME280;2933;52.302;8.134;2023-02-15T18:10:51;101300.03;;;4.50;100.00
5814;BME280;2933;52.302;8.134;2023-02-15T18:16:13;101295.84;;;4.45;100.00
5814;BME280;2933;52.302;8.134;2023-02-15T18:21:15;101297.06;;;4.28;100.00
5814;BME280;2933;52.302;8.134;2023-02-15T18:26:19;101283.38;;;4.23;100.00
5814;BME280;2933;52.302;8.134;2023-02-15T18:31:23;101278.44;;;4.12;100.00
5814;BME280;2933;52.302;8.134;2023-02-15T18:36:26;101289.66;;;4.11;100.00
5814;BME280;2933;52.302;8.134;2023-02-15T18:41:28;101296.13;;;3.92;100.00
5814;BME280;2933;52.302;8.134;2023-02-15T18:46:31;101288.63;;;3.78;100.00
5814;BME280;2933;52.302;8.134;2023-02-15T18:51:33;101294.66;;;3.78;100.00
5814;BME280;2933;52.302;8.134;2023-02-15T18:56:39;101303.31;;;3.74;100.00
5814;BME280;2933;52.302;8.134;2023-02-15T19:01:42;101306.66;;;3.81;100.00
5814;BME280;2933;52.302;8.134;2023-02-15T19:06:45;101311.91;;;3.76;100.00
5814;BME280;2933;52.302;8.134;2023-02-15T19:11:49;101318.09;;;3.67;100.00
5814;BME280;2933;52.302;8.134;2023-02-15T19:16:53;101318.34;;;3.55;100.00
5814;BME280;2933;52.302;8.134;2023-02-15T19:21:55;101309.72;;;3.56;100.00
5814;BME280;2933;52.302;8.134;2023-02-15T19:26:57;101315.25;;;3.34;100.00
5814;BME280;2933;52.302;8.134;2023-02-15T19:32:00;101318.81;;;3.29;100.00
5814;BME280;2933;52.302;8.134;2023-02-15T19:37:02;101325.69;;;3.30;100.00
5814;BME280;2933;52.302;8.134;2023-02-15T19:42:12;101318.78;;;3.30;100.00
5814;BME280;2933;52.302;8.134;2023-02-15T19:47:16;101289.75;;;3.16;100.00
5814;BME280;2933;52.302;8.134;2023-02-15T19:52:19;101312.03;;;3.21;100.00
5814;BME280;2933;52.302;8.134;2023-02-15T19:57:23;101313.78;;;3.19;100.00
5814;BME280;2933;52.302;8.134;2023-02-15T20:02:26;101301.94;;;3.07;100.00
5814;BME280;2933;52.302;8.134;2023-02-15T20:07:27;101313.19;;;3.05;100.00
5814;BME280;2933;52.302;8.134;2023-02-15T20:12:29;101308.09;;;2.99;100.00
5814;BME280;2933;52.302;8.134;2023-02-15T20:17:32;101311.50;;;3.01;100.00
5814;BME280;2933;52.302;8.134;2023-02-15T20:22:33;101317.59;;;2.97;100.00
5814;BME280;2933;52.302;8.134;2023-02-15T20:27:35;101317.69;;;2.90;100.00
5814;BME280;2933;52.302;8.134;2023-02-15T20:32:42;101312.69;;;2.81;100.00
5814;BME280;2933;52.302;8.134;2023-02-15T20:37:51;101312.69;;;2.81;100.00
5814;BME280;2933;52.302;8.134;2023-02-15T20:43:10;101296.53;;;2.70;100.00
5814;BME280;2933;52.302;8.134;2023-02-15T20:48:26;101275.34;;;2.48;100.00
5814;BME280;2933;52.302;8.134;2023-02-15T20:53:28;101265.97;;;2.40;100.00
5814;BME280;2933;52.302;8.134;2023-02-15T20:58:30;101304.50;;;2.53;100.00
5814;BME280;2933;52.302;8.134;2023-02-15T21:03:33;101323.47;;;2.47;100.00
5814;BME280;2933;52.302;8.134;2023-02-15T21:08:34;101332.16;;;2.40;100.00
5814;BME280;2933;52.302;8.134;2023-02-15T21:13:36;101338.19;;;2.40;100.00
5814;BME280;2933;52.302;8.134;2023-02-15T21:18:39;101346.88;;;2.33;100.00
5814;BME280;2933;52.302;8.134;2023-02-15T21:23:42;101340.97;;;2.26;100.00
5814;BME280;2933;52.302;8.134;2023-02-15T21:28:44;101341.03;;;2.20;100.00
5814;BME280;2933;52.302;8.134;2023-02-15T21:33:47;101338.53;;;2.14;100.00
5814;BME280;2933;52.302;8.134;2023-02-15T21:38:49;101339.50;;;2.02;100.00
5814;BME280;2933;52.302;8.134;2023-02-15T21:43:52;101335.31;;;1.93;100.00
5814;BME280;2933;52.302;8.134;2023-02-15T21:49:13;101337.91;;;1.93;100.00
5814;BME280;2933;52.302;8.134;2023-02-15T21:54:16;101320.00;;;1.81;100.00
5814;BME280;2933;52.302;8.134;2023-02-15T21:59:18;101326.00;;;1.80;100.00
5814;BME280;2933;52.302;8.134;2023-02-15T22:04:24;101321.81;;;1.73;100.00
5814;BME280;2933;52.302;8.134;2023-02-15T22:09:26;101327.09;;;1.59;100.00
5814;BME280;2933;52.302;8.134;2023-02-15T22:14:38;101315.84;;;1.68;100.00
5814;BME280;2933;52.302;8.134;2023-02-15T22:19:42;101311.59;;;1.67;100.00
5814;BME280;2933;52.302;8.134;2023-02-15T22:24:49;101309.88;;;1.63;100.00
5814;BME280;2933;52.302;8.134;2023-02-15T22:30:17;101290.25;;;1.52;100.00
5814;BME280;2933;52.302;8.134;2023-02-15T22:35:31;101299.66;;;1.55;100.00
5814;BME280;2933;52.302;8.134;2023-02-15T22:40:48;101292.84;;;1.49;100.00
5814;BME280;2933;52.302;8.134;2023-02-15T22:52:53;101248.53;;;1.21;100.00
5814;BME280;2933;52.302;8.134;2023-02-15T22:56:57;101263.09;;;1.22;100.00
5814;BME280;2933;52.302;8.134;2023-02-15T23:02:13;101284.56;;;1.19;100.00
5814;BME280;2933;52.302;8.134;2023-02-15T23:07:28;101291.31;;;1.31;100.00
5814;BME280;2933;52.302;8.134;2023-02-15T23:12:30;101290.53;;;1.24;100.00
5814;BME280;2933;52.302;8.134;2023-02-15T23:18:21;101294.00;;;1.19;100.00
5814;BME280;2933;52.302;8.134;2023-02-15T23:23:46;101287.97;;;1.23;100.00
5814;BME280;2933;52.302;8.134;2023-02-15T23:28:54;101293.09;;;1.26;100.00
5814;BME280;2933;52.302;8.134;2023-02-15T23:34:20;101289.75;;;1.13;100.00
5814;BME280;2933;52.302;8.134;2023-02-15T23:39:32;101283.00;;;1.01;100.00
5814;BME280;2933;52.302;8.134;2023-02-15T23:44:54;101279.59;;;1.02;100.00
5814;BME280;2933;52.302;8.134;2023-02-15T23:55:46;101247.22;;;0.73;100.00
